Time;durP1;ratioP1;P1;durP2;ratioP2;P2;SDS_P1;SDS_P2;PMS_P1;PMS_P2;Temp;Humidity;BMP_temperature;BMP_pressure;BME280_temperature;BME280_humidity;BME280_pressure;Samples;Min_cycle;Max_cycle;Signal;HPM_P1;HPM_P2
2022/09/07 00:00:41;;;;;;;;;1.75;1.75;;;;;;;;5025940;28;8831;-80
2022/09/07 00:03:09;;;;;;;;;1.40;1.40;;;;;;;;5023423;28;9209;-81
2022/09/07 00:05:44;;;;;;;;;1.00;1.00;;;;;;;;5025279;28;8885;-80
2022/09/07 00:08:12;;;;;;;;;2.60;1.00;;;;;;;;5025102;28;8864;-80
2022/09/07 00:10:39;;;;;;;;;2.00;2.00;;;;;;;;5022470;28;8877;-81
2022/09/07 00:13:08;;;;;;;;;1.80;1.00;;;;;;;;5024518;28;8967;-82
2022/09/07 00:15:39;;;;;;;;;2.00;2.00;;;;;;;;5021157;28;8889;-81
2022/09/07 00:18:06;;;;;;;;;2.40;2.40;;;;;;;;5024670;28;8872;-81
2022/09/07 00:20:34;;;;;;;;;1.80;1.80;;;;;;;;5023680;28;8915;-80
2022/09/07 00:23:03;;;;;;;;;1.00;1.00;;;;;;;;5025318;28;8890;-81
2022/09/07 00:25:30;;;;;;;;;1.00;1.00;;;;;;;;5024189;28;8926;-82
2022/09/07 00:27:57;;;;;;;;;0.00;0.00;;;;;;;;5023270;28;8873;-80
2022/09/07 00:30:24;;;;;;;;;0.40;0.40;;;;;;;;5023792;28;8793;-80
2022/09/07 00:32:51;;;;;;;;;0.00;0.00;;;;;;;;5023109;28;8864;-80
2022/09/07 00:35:19;;;;;;;;;1.00;1.00;;;;;;;;5025412;28;9716;-79
2022/09/07 00:37:46;;;;;;;;;1.00;1.00;;;;;;;;5023952;28;8891;-80
2022/09/07 00:40:15;;;;;;;;;1.00;1.00;;;;;;;;5024102;28;8877;-80
2022/09/07 00:42:42;;;;;;;;;1.60;1.60;;;;;;;;5023868;28;8864;-79
2022/09/07 00:45:14;;;;;;;;;1.00;1.00;;;;;;;;5009690;28;10011;-79
2022/09/07 00:47:46;;;;;;;;;2.00;2.00;;;;;;;;5024973;28;8887;-80
2022/09/07 00:50:19;;;;;;;;;0.80;0.80;;;;;;;;5013855;28;8890;-80
2022/09/07 00:52:50;;;;;;;;;1.00;1.00;;;;;;;;5025120;28;8977;-80
2022/09/07 00:55:20;;;;;;;;;2.00;2.00;;;;;;;;5022979;28;8872;-81
2022/09/07 00:57:51;;;;;;;;;1.00;1.00;;;;;;;;5022353;28;8951;-80
2022/09/07 01:00:18;;;;;;;;;0.40;0.40;;;;;;;;5023879;28;9023;-80
2022/09/07 01:02:48;;;;;;;;;2.00;2.00;;;;;;;;5021870;28;8922;-80
2022/09/07 01:05:19;;;;;;;;;1.00;1.00;;;;;;;;5024791;28;8852;-81
2022/09/07 01:07:47;;;;;;;;;0.20;0.20;;;;;;;;5021383;28;8868;-79
2022/09/07 01:10:15;;;;;;;;;1.00;1.00;;;;;;;;5024291;28;8882;-80
2022/09/07 01:12:43;;;;;;;;;1.00;1.00;;;;;;;;5022975;28;8987;-80
2022/09/07 01:15:11;;;;;;;;;1.25;1.25;;;;;;;;5022095;28;9038;-79
2022/09/07 01:17:48;;;;;;;;;1.50;0.00;;;;;;;;5024331;28;8873;-80
2022/09/07 01:21:01;;;;;;;;;0.00;0.00;;;;;;;;5022508;28;8888;-80
2022/09/07 01:24:03;;;;;;;;;0.50;0.50;;;;;;;;4962572;28;8877;-80
2022/09/07 01:27:07;;;;;;;;;1.00;1.00;;;;;;;;5023886;28;9885;-80
2022/09/07 01:29:42;;;;;;;;;1.75;1.75;;;;;;;;5015593;28;8885;-78
2022/09/07 01:32:13;;;;;;;;;3.00;1.50;;;;;;;;5022581;28;8801;-79
2022/09/07 01:34:44;;;;;;;;;1.00;1.00;;;;;;;;5022784;28;9019;-78
2022/09/07 01:37:22;;;;;;;;;2.75;1.00;;;;;;;;5004902;28;8868;-77
2022/09/07 01:40:00;;;;;;;;;1.00;1.00;;;;;;;;5023868;28;8958;-79
2022/09/07 01:42:31;;;;;;;;;1.00;1.00;;;;;;;;5021335;28;9673;-79
2022/09/07 01:45:03;;;;;;;;;1.00;1.00;;;;;;;;5022652;28;8911;-79
2022/09/07 01:47:34;;;;;;;;;1.50;1.50;;;;;;;;5016657;28;8909;-79
2022/09/07 01:50:07;;;;;;;;;1.00;1.00;;;;;;;;5022720;28;8923;-80
2022/09/07 01:52:41;;;;;;;;;1.75;1.75;;;;;;;;5023686;28;8979;-79
2022/09/07 01:55:13;;;;;;;;;1.00;1.00;;;;;;;;5004188;28;8872;-79
2022/09/07 01:57:43;;;;;;;;;4.25;1.00;;;;;;;;5023380;28;9670;-79
2022/09/07 02:00:14;;;;;;;;;2.00;2.00;;;;;;;;5021715;28;8860;-80
2022/09/07 02:02:46;;;;;;;;;2.00;2.00;;;;;;;;5018829;28;8869;-79
2022/09/07 02:05:17;;;;;;;;;1.50;1.50;;;;;;;;5021707;28;8844;-78
2022/09/07 02:07:47;;;;;;;;;1.00;1.00;;;;;;;;5022933;28;8913;-79
2022/09/07 02:10:17;;;;;;;;;1.75;1.75;;;;;;;;5017864;28;8868;-80
2022/09/07 02:12:49;;;;;;;;;0.00;0.00;;;;;;;;5021075;28;8881;-80
2022/09/07 02:15:21;;;;;;;;;1.25;1.25;;;;;;;;5006301;28;8872;-80
2022/09/07 02:17:51;;;;;;;;;1.50;1.00;;;;;;;;5021515;28;8947;-80
2022/09/07 02:20:21;;;;;;;;;1.00;1.00;;;;;;;;5022046;28;8872;-80
2022/09/07 02:22:54;;;;;;;;;2.50;1.50;;;;;;;;5015706;28;8848;-80
2022/09/07 02:25:23;;;;;;;;;4.50;1.50;;;;;;;;5037053;28;8869;-79
2022/09/07 02:27:55;;;;;;;;;1.00;1.00;;;;;;;;5022993;28;9607;-80
2022/09/07 02:30:23;;;;;;;;;0.00;0.00;;;;;;;;5012195;28;8879;-79
2022/09/07 02:32:51;;;;;;;;;0.50;0.50;;;;;;;;5022565;28;8904;-79
2022/09/07 02:35:18;;;;;;;;;1.00;1.00;;;;;;;;5019941;28;8891;-80
2022/09/07 02:37:46;;;;;;;;;1.00;1.00;;;;;;;;5022270;28;8865;-79
2022/09/07 02:40:14;;;;;;;;;1.50;1.50;;;;;;;;5021853;28;8975;-80
2022/09/07 02:42:42;;;;;;;;;1.00;1.00;;;;;;;;5016587;28;8879;-80
2022/09/07 02:45:11;;;;;;;;;1.00;1.00;;;;;;;;5020931;28;8891;-79
2022/09/07 02:47:58;;;;;;;;;1.00;1.00;;;;;;;;5021743;28;8861;-80
2022/09/07 02:50:45;;;;;;;;;1.25;1.25;;;;;;;;5021199;28;8886;-79
2022/09/07 02:53:25;;;;;;;;;0.00;0.00;;;;;;;;5020712;28;8861;-80
2022/09/07 02:56:00;;;;;;;;;1.25;0.75;;;;;;;;5021758;28;8876;-79
2022/09/07 02:58:34;;;;;;;;;1.00;1.00;;;;;;;;5015221;28;8899;-79
2022/09/07 03:01:09;;;;;;;;;1.00;1.00;;;;;;;;5019152;28;8854;-79
2022/09/07 03:03:44;;;;;;;;;5.75;3.00;;;;;;;;5021200;28;8860;-79
2022/09/07 03:06:19;;;;;;;;;2.00;2.00;;;;;;;;5023190;28;8963;-78
2022/09/07 03:08:50;;;;;;;;;1.50;1.50;;;;;;;;5021295;28;8852;-79
2022/09/07 03:11:18;;;;;;;;;1.00;1.00;;;;;;;;5019403;28;8852;-79
2022/09/07 03:13:45;;;;;;;;;1.50;1.50;;;;;;;;5040201;28;8884;-79
2022/09/07 03:16:13;;;;;;;;;1.00;1.00;;;;;;;;5022954;28;9471;-79
2022/09/07 03:18:43;;;;;;;;;1.75;1.75;;;;;;;;5020193;28;8896;-79
2022/09/07 03:21:10;;;;;;;;;2.50;1.75;;;;;;;;5022077;28;8894;-79
2022/09/07 03:23:38;;;;;;;;;1.00;1.00;;;;;;;;5022065;28;8927;-79
2022/09/07 03:26:05;;;;;;;;;1.00;1.00;;;;;;;;5021867;28;8876;-79
2022/09/07 03:28:33;;;;;;;;;2.00;2.00;;;;;;;;5006495;28;8864;-79
2022/09/07 03:31:02;;;;;;;;;1.75;1.75;;;;;;;;5020880;28;8813;-80
2022/09/07 03:33:29;;;;;;;;;1.75;1.75;;;;;;;;5008545;28;8883;-79
2022/09/07 03:36:02;;;;;;;;;3.75;1.00;;;;;;;;5020931;28;8893;-79
2022/09/07 03:38:30;;;;;;;;;2.00;2.00;;;;;;;;5021605;28;8876;-79
2022/09/07 03:40:59;;;;;;;;;3.00;3.00;;;;;;;;5020684;28;9615;-80
2022/09/07 03:43:26;;;;;;;;;2.00;2.00;;;;;;;;5021350;28;8884;-79
2022/09/07 03:45:57;;;;;;;;;3.50;3.50;;;;;;;;5022277;28;8898;-81
2022/09/07 03:48:25;;;;;;;;;2.75;2.75;;;;;;;;5022908;28;8864;-80
2022/09/07 03:51:01;;;;;;;;;5.00;2.00;;;;;;;;5013471;28;8884;-81
2022/09/07 03:53:31;;;;;;;;;2.75;2.25;;;;;;;;5020082;28;8975;-80
2022/09/07 03:55:59;;;;;;;;;2.00;2.00;;;;;;;;5022547;28;8872;-79
2022/09/07 03:58:28;;;;;;;;;2.00;2.00;;;;;;;;5025971;28;8991;-80
2022/09/07 04:00:55;;;;;;;;;3.25;3.25;;;;;;;;5011290;28;8805;-79
2022/09/07 04:03:23;;;;;;;;;2.50;2.25;;;;;;;;5025713;28;8859;-79
2022/09/07 04:05:50;;;;;;;;;2.25;2.25;;;;;;;;5024143;28;8899;-79
2022/09/07 04:08:19;;;;;;;;;2.25;2.25;;;;;;;;5025855;28;9018;-79
2022/09/07 04:10:46;;;;;;;;;2.00;2.00;;;;;;;;5024181;28;8906;-79
2022/09/07 04:13:13;;;;;;;;;6.25;3.00;;;;;;;;5025300;28;8983;-79
2022/09/07 04:15:40;;;;;;;;;1.00;1.00;;;;;;;;5024769;28;8868;-79
2022/09/07 04:18:07;;;;;;;;;2.00;2.00;;;;;;;;5023703;28;8881;-80
2022/09/07 04:20:35;;;;;;;;;4.00;2.00;;;;;;;;5025125;28;8960;-80
2022/09/07 04:23:02;;;;;;;;;2.00;2.00;;;;;;;;5024788;28;8908;-79
2022/09/07 04:25:31;;;;;;;;;2.75;2.00;;;;;;;;5025666;28;8999;-80
2022/09/07 04:27:58;;;;;;;;;1.00;1.00;;;;;;;;5020957;28;8922;-80
2022/09/07 04:30:25;;;;;;;;;1.00;1.00;;;;;;;;5024279;28;8793;-80
2022/09/07 04:32:53;;;;;;;;;2.75;2.50;;;;;;;;5021121;28;8888;-78
2022/09/07 04:35:21;;;;;;;;;2.00;2.00;;;;;;;;5024310;28;8894;-78
2022/09/07 04:37:48;;;;;;;;;3.75;3.00;;;;;;;;5007364;28;8897;-79
2022/09/07 04:40:16;;;;;;;;;2.25;2.25;;;;;;;;5023608;28;8927;-79
2022/09/07 04:42:45;;;;;;;;;4.00;4.00;;;;;;;;5023476;28;8908;-79
2022/09/07 04:45:12;;;;;;;;;2.00;2.00;;;;;;;;5020977;28;8840;-79
2022/09/07 04:47:39;;;;;;;;;3.50;2.50;;;;;;;;5016878;28;8972;-79
2022/09/07 04:50:08;;;;;;;;;2.25;2.25;;;;;;;;5026311;28;8864;-79
2022/09/07 04:52:35;;;;;;;;;2.00;2.00;;;;;;;;5025395;28;8905;-79
2022/09/07 04:55:04;;;;;;;;;1.25;1.25;;;;;;;;5024539;28;8864;-77
2022/09/07 04:57:31;;;;;;;;;2.00;2.00;;;;;;;;5024254;28;8879;-77
2022/09/07 05:00:00;;;;;;;;;2.25;2.25;;;;;;;;5024695;28;8856;-77
2022/09/07 05:02:27;;;;;;;;;2.25;2.00;;;;;;;;5022899;28;8836;-78
2022/09/07 05:04:54;;;;;;;;;1.25;1.25;;;;;;;;5023971;28;8876;-78
2022/09/07 05:07:21;;;;;;;;;5.75;4.00;;;;;;;;5025173;28;8876;-77
2022/09/07 05:09:49;;;;;;;;;3.25;3.25;;;;;;;;5024109;28;8902;-77
2022/09/07 05:12:16;;;;;;;;;5.50;5.50;;;;;;;;5023594;28;8875;-77
2022/09/07 05:14:43;;;;;;;;;3.25;3.25;;;;;;;;5024100;28;8884;-77
2022/09/07 05:17:12;;;;;;;;;4.00;4.00;;;;;;;;5024634;28;8873;-77
2022/09/07 05:19:39;;;;;;;;;3.00;3.00;;;;;;;;5022971;28;8947;-78
2022/09/07 05:22:07;;;;;;;;;4.25;4.25;;;;;;;;5025131;28;8917;-78
2022/09/07 05:24:35;;;;;;;;;4.75;3.50;;;;;;;;5023117;28;9638;-79
2022/09/07 05:27:05;;;;;;;;;4.00;4.00;;;;;;;;5024182;28;9011;-78
2022/09/07 05:29:33;;;;;;;;;5.00;4.00;;;;;;;;5023159;28;8894;-78
2022/09/07 05:32:03;;;;;;;;;4.00;4.00;;;;;;;;5022696;28;8843;-78
2022/09/07 05:34:32;;;;;;;;;7.00;5.50;;;;;;;;5024386;28;8847;-79
2022/09/07 05:36:59;;;;;;;;;3.25;3.25;;;;;;;;5016841;28;8869;-78
2022/09/07 05:39:26;;;;;;;;;3.00;3.00;;;;;;;;5026513;28;8883;-77
2022/09/07 05:41:54;;;;;;;;;3.50;3.50;;;;;;;;5021968;28;8865;-78
2022/09/07 05:44:21;;;;;;;;;4.25;3.00;;;;;;;;5022497;28;8986;-79
2022/09/07 05:46:49;;;;;;;;;4.75;3.50;;;;;;;;5020355;28;8947;-79
2022/09/07 05:49:16;;;;;;;;;3.25;3.25;;;;;;;;5022063;28;8871;-81
2022/09/07 05:51:45;;;;;;;;;3.75;3.75;;;;;;;;5017219;28;8886;-86
2022/09/07 05:54:13;;;;;;;;;2.75;2.75;;;;;;;;5024041;28;8916;-88
2022/09/07 05:56:40;;;;;;;;;5.25;3.75;;;;;;;;5024185;28;8837;-83
2022/09/07 05:59:07;;;;;;;;;4.00;4.00;;;;;;;;5019089;28;8966;-77
2022/09/07 06:01:35;;;;;;;;;4.00;4.00;;;;;;;;5022568;28;8813;-77
2022/09/07 06:04:02;;;;;;;;;1.75;1.75;;;;;;;;5019720;28;8873;-77
2022/09/07 06:06:30;;;;;;;;;3.75;3.75;;;;;;;;5023688;28;8880;-78
2022/09/07 06:08:58;;;;;;;;;4.25;3.25;;;;;;;;5021854;28;8861;-79
2022/09/07 06:11:26;;;;;;;;;4.25;4.00;;;;;;;;5021973;28;8967;-79
2022/09/07 06:13:54;;;;;;;;;3.75;3.75;;;;;;;;5022266;28;8860;-79
2022/09/07 06:16:21;;;;;;;;;4.00;4.00;;;;;;;;5021286;28;8876;-80
2022/09/07 06:18:50;;;;;;;;;4.25;4.25;;;;;;;;5022606;28;8998;-78
2022/09/07 06:21:18;;;;;;;;;3.25;3.25;;;;;;;;5022591;28;8869;-81
2022/09/07 06:23:46;;;;;;;;;3.50;3.50;;;;;;;;5023064;28;8872;-80
2022/09/07 06:26:16;;;;;;;;;6.00;4.25;;;;;;;;5019466;28;8896;-79
2022/09/07 06:28:44;;;;;;;;;3.25;3.25;;;;;;;;5016070;28;8887;-79
2022/09/07 06:31:13;;;;;;;;;3.00;3.00;;;;;;;;5022959;28;8817;-76
2022/09/07 06:33:41;;;;;;;;;4.00;4.00;;;;;;;;5024365;28;8888;-77
2022/09/07 06:36:12;;;;;;;;;3.00;3.00;;;;;;;;5021945;28;8880;-78
2022/09/07 06:38:40;;;;;;;;;3.50;2.75;;;;;;;;5021241;28;8884;-77
2022/09/07 06:41:09;;;;;;;;;5.00;4.50;;;;;;;;5022429;28;8899;-78
2022/09/07 06:43:38;;;;;;;;;4.00;4.00;;;;;;;;5021342;28;8885;-80
2022/09/07 06:46:06;;;;;;;;;3.00;3.00;;;;;;;;5021901;28;8880;-77
2022/09/07 06:48:34;;;;;;;;;4.00;4.00;;;;;;;;5022057;28;8865;-77
2022/09/07 06:51:03;;;;;;;;;4.25;4.25;;;;;;;;5023513;28;8860;-78
2022/09/07 06:53:33;;;;;;;;;3.00;3.00;;;;;;;;5022099;28;9498;-79
2022/09/07 06:56:00;;;;;;;;;3.75;3.75;;;;;;;;5022737;28;8856;-83
2022/09/07 06:58:28;;;;;;;;;3.00;3.00;;;;;;;;5023030;28;9535;-82
2022/09/07 07:00:57;;;;;;;;;6.25;4.25;;;;;;;;5017759;28;8844;-82
2022/09/07 07:03:24;;;;;;;;;6.00;6.00;;;;;;;;5012502;28;8959;-78
2022/09/07 07:05:53;;;;;;;;;4.25;4.25;;;;;;;;5017587;28;8885;-79
2022/09/07 07:08:22;;;;;;;;;4.50;4.00;;;;;;;;5021333;28;8899;-78
2022/09/07 07:10:49;;;;;;;;;4.75;4.50;;;;;;;;5022704;28;9074;-73
2022/09/07 07:13:17;;;;;;;;;6.50;5.25;;;;;;;;5020737;28;8878;-73
2022/09/07 07:15:45;;;;;;;;;6.00;4.50;;;;;;;;5022227;28;8872;-73
2022/09/07 07:18:14;;;;;;;;;4.00;4.00;;;;;;;;5020383;28;9626;-73
2022/09/07 07:20:43;;;;;;;;;5.00;5.00;;;;;;;;5004433;28;8911;-73
2022/09/07 07:23:11;;;;;;;;;4.00;4.00;;;;;;;;5024671;28;8999;-74
2022/09/07 07:25:39;;;;;;;;;4.00;4.00;;;;;;;;5027637;28;8852;-74
2022/09/07 07:28:06;;;;;;;;;5.00;5.00;;;;;;;;5022857;28;8856;-73
2022/09/07 07:30:33;;;;;;;;;4.50;4.50;;;;;;;;5025183;28;9676;-73
2022/09/07 07:33:01;;;;;;;;;4.00;4.00;;;;;;;;5026157;28;8894;-74
2022/09/07 07:35:30;;;;;;;;;4.25;4.25;;;;;;;;5024477;28;9010;-75
2022/09/07 07:37:57;;;;;;;;;6.25;6.25;;;;;;;;5026894;28;8884;-77
2022/09/07 07:40:24;;;;;;;;;8.50;5.75;;;;;;;;5025484;28;8883;-76
2022/09/07 07:42:52;;;;;;;;;6.75;5.50;;;;;;;;5002798;28;8926;-76
2022/09/07 07:45:19;;;;;;;;;5.00;3.40;;;;;;;;5021148;28;8905;-76
2022/09/07 07:47:49;;;;;;;;;3.25;3.25;;;;;;;;5019020;28;8877;-76
2022/09/07 07:50:18;;;;;;;;;6.20;5.00;;;;;;;;5023384;28;8861;-76
2022/09/07 07:52:46;;;;;;;;;5.40;3.60;;;;;;;;5022544;28;8875;-76
2022/09/07 07:55:14;;;;;;;;;5.20;4.40;;;;;;;;5022764;28;9759;-76
2022/09/07 07:57:41;;;;;;;;;2.80;2.80;;;;;;;;5022821;28;8887;-76
2022/09/07 08:00:09;;;;;;;;;6.00;4.80;;;;;;;;5023364;28;8918;-76
2022/09/07 08:02:37;;;;;;;;;2.20;2.20;;;;;;;;5019358;28;8868;-76
2022/09/07 08:05:04;;;;;;;;;5.20;4.60;;;;;;;;5022803;28;8957;-76
2022/09/07 08:07:32;;;;;;;;;4.40;4.40;;;;;;;;5022282;28;8889;-76
2022/09/07 08:10:01;;;;;;;;;4.20;3.60;;;;;;;;5021413;28;8872;-76
2022/09/07 08:12:30;;;;;;;;;4.80;3.00;;;;;;;;5023378;28;8884;-76
2022/09/07 08:14:57;;;;;;;;;4.00;4.00;;;;;;;;5024149;28;8884;-76
2022/09/07 08:17:24;;;;;;;;;7.20;3.80;;;;;;;;5022696;28;8880;-76
2022/09/07 08:19:54;;;;;;;;;6.40;5.00;;;;;;;;5023599;28;10125;-76
2022/09/07 08:22:21;;;;;;;;;3.80;2.00;;;;;;;;5022480;28;8861;-76
2022/09/07 08:24:48;;;;;;;;;5.60;4.00;;;;;;;;5024254;28;9477;-76
2022/09/07 08:27:20;;;;;;;;;3.00;3.00;;;;;;;;5020199;28;8875;-76
2022/09/07 08:29:48;;;;;;;;;3.20;3.20;;;;;;;;5007084;28;8880;-76
2022/09/07 08:32:15;;;;;;;;;3.00;3.00;;;;;;;;5020965;28;9249;-76
2022/09/07 08:34:42;;;;;;;;;2.60;2.60;;;;;;;;5020647;28;8888;-77
2022/09/07 08:37:10;;;;;;;;;1.80;1.80;;;;;;;;5021688;28;8975;-76
2022/09/07 08:39:37;;;;;;;;;4.00;3.00;;;;;;;;5021743;28;8896;-76
2022/09/07 08:42:23;;;;;;;;;4.60;3.00;;;;;;;;5003669;28;8895;-76
2022/09/07 08:44:53;;;;;;;;;3.80;3.00;;;;;;;;5021034;28;8888;-76
2022/09/07 08:47:28;;;;;;;;;4.40;3.80;;;;;;;;5023056;28;8891;-76
2022/09/07 08:50:01;;;;;;;;;2.00;2.00;;;;;;;;5022888;28;8883;-76
2022/09/07 08:52:33;;;;;;;;;3.00;3.00;;;;;;;;5022405;28;8904;-76
2022/09/07 08:55:04;;;;;;;;;4.40;3.60;;;;;;;;5022998;28;8876;-76
2022/09/07 08:57:36;;;;;;;;;4.80;2.00;;;;;;;;5021719;28;8868;-76
2022/09/07 09:00:07;;;;;;;;;2.80;2.80;;;;;;;;5012691;28;8991;-76
2022/09/07 09:02:35;;;;;;;;;4.60;4.00;;;;;;;;5019509;28;8829;-76
2022/09/07 09:05:03;;;;;;;;;5.00;3.00;;;;;;;;5021636;28;8973;-76
2022/09/07 09:07:38;;;;;;;;;2.40;2.40;;;;;;;;5020627;28;9389;-76
2022/09/07 09:10:17;;;;;;;;;3.00;3.00;;;;;;;;5014501;28;9023;-76
2022/09/07 09:13:02;;;;;;;;;4.20;3.80;;;;;;;;5022834;28;8996;-75
2022/09/07 09:15:42;;;;;;;;;3.40;2.60;;;;;;;;5019602;28;8910;-73
2022/09/07 09:18:24;;;;;;;;;3.60;3.20;;;;;;;;5023840;28;8887;-73
2022/09/07 09:20:55;;;;;;;;;3.60;3.00;;;;;;;;5023849;28;8867;-74
2022/09/07 09:23:25;;;;;;;;;3.40;3.40;;;;;;;;5023338;28;8883;-75
2022/09/07 09:25:54;;;;;;;;;3.60;3.00;;;;;;;;5023456;28;8887;-74
2022/09/07 09:28:23;;;;;;;;;3.00;3.00;;;;;;;;5023620;28;8868;-75
2022/09/07 09:30:51;;;;;;;;;3.00;3.00;;;;;;;;5022644;28;8862;-74
2022/09/07 09:33:20;;;;;;;;;6.00;1.80;;;;;;;;5022838;28;8873;-75
2022/09/07 09:35:50;;;;;;;;;2.40;2.40;;;;;;;;5023450;28;9684;-74
2022/09/07 09:38:34;;;;;;;;;5.00;2.20;;;;;;;;5023652;28;8840;-75
2022/09/07 09:41:05;;;;;;;;;7.40;2.40;;;;;;;;5014722;28;8958;-75
2022/09/07 09:43:41;;;;;;;;;4.00;4.00;;;;;;;;5024146;28;8853;-76
2022/09/07 09:46:20;;;;;;;;;3.20;3.20;;;;;;;;5005743;28;8852;-74
2022/09/07 09:48:54;;;;;;;;;5.00;4.00;;;;;;;;4996135;28;8876;-75
2022/09/07 09:51:22;;;;;;;;;3.00;3.00;;;;;;;;5017813;28;8945;-75
2022/09/07 09:53:57;;;;;;;;;2.40;2.40;;;;;;;;5002652;28;8955;-73
2022/09/07 09:56:40;;;;;;;;;3.80;3.80;;;;;;;;5021185;28;8857;-73
2022/09/07 09:59:27;;;;;;;;;3.40;3.40;;;;;;;;5025698;28;8858;-73
2022/09/07 10:01:54;;;;;;;;;3.80;2.00;;;;;;;;5018362;28;8801;-74
2022/09/07 10:04:33;;;;;;;;;3.00;3.00;;;;;;;;5005498;28;8861;-73
2022/09/07 10:07:09;;;;;;;;;4.00;4.00;;;;;;;;5022049;28;8891;-73
2022/09/07 10:09:37;;;;;;;;;2.00;2.00;;;;;;;;5026149;28;8946;-72
2022/09/07 10:12:07;;;;;;;;;2.60;2.00;;;;;;;;5016872;28;8876;-72
2022/09/07 10:14:38;;;;;;;;;5.40;3.60;;;;;;;;5023125;28;8888;-73
2022/09/07 10:17:13;;;;;;;;;4.40;4.00;;;;;;;;5023392;28;8864;-73
2022/09/07 10:19:41;;;;;;;;;2.60;2.60;;;;;;;;5022509;28;8995;-73
2022/09/07 10:22:22;;;;;;;;;4.00;4.00;;;;;;;;5023247;28;9521;-73
2022/09/07 10:24:51;;;;;;;;;3.80;2.40;;;;;;;;5020093;28;8872;-73
2022/09/07 10:27:30;;;;;;;;;3.60;3.60;;;;;;;;5023394;28;8898;-72
2022/09/07 10:29:59;;;;;;;;;3.80;3.60;;;;;;;;5023476;28;8885;-73
2022/09/07 10:32:44;;;;;;;;;4.60;2.80;;;;;;;;5021268;28;9654;-73
2022/09/07 10:35:18;;;;;;;;;4.40;4.20;;;;;;;;5019792;28;8877;-73
2022/09/07 10:37:53;;;;;;;;;3.00;2.80;;;;;;;;5022367;28;9627;-73
2022/09/07 10:40:28;;;;;;;;;6.80;2.40;;;;;;;;5022906;28;8876;-73
2022/09/07 10:43:01;;;;;;;;;4.80;3.80;;;;;;;;5019705;28;8870;-72
2022/09/07 10:45:37;;;;;;;;;4.60;2.60;;;;;;;;5020852;28;8906;-73
2022/09/07 10:48:09;;;;;;;;;4.20;2.60;;;;;;;;5023325;28;8864;-72
2022/09/07 10:50:42;;;;;;;;;1.80;1.40;;;;;;;;5019544;28;8872;-76
2022/09/07 10:53:35;;;;;;;;;7.20;4.00;;;;;;;;5021350;28;8883;-72
2022/09/07 10:56:07;;;;;;;;;3.80;3.80;;;;;;;;5021175;28;8879;-71
2022/09/07 10:58:45;;;;;;;;;5.00;2.20;;;;;;;;5022707;28;8888;-71
2022/09/07 11:01:20;;;;;;;;;2.80;2.80;;;;;;;;5025535;28;8824;-73
2022/09/07 11:03:59;;;;;;;;;3.00;3.00;;;;;;;;5017632;28;8941;-73
2022/09/07 11:06:32;;;;;;;;;0.00;0.00;;;;;;;;5026170;28;8884;-72
2022/09/07 11:09:08;;;;;;;;;4.20;2.60;;;;;;;;5026881;28;8973;-72
2022/09/07 11:11:40;;;;;;;;;5.00;4.00;;;;;;;;5025509;28;8918;-76
2022/09/07 11:14:12;;;;;;;;;3.00;2.60;;;;;;;;5026868;28;9688;-74
2022/09/07 11:16:47;;;;;;;;;3.00;3.00;;;;;;;;5019270;28;9606;-74
2022/09/07 11:19:18;;;;;;;;;3.20;3.20;;;;;;;;5026352;28;8872;-73
2022/09/07 11:22:01;;;;;;;;;5.60;4.40;;;;;;;;5025463;28;8849;-73
2022/09/07 11:24:33;;;;;;;;;5.40;4.40;;;;;;;;5025831;28;9657;-74
2022/09/07 11:27:06;;;;;;;;;3.40;2.80;;;;;;;;5023398;28;10036;-74
2022/09/07 11:29:36;;;;;;;;;5.80;4.00;;;;;;;;5025125;28;8880;-77
2022/09/07 11:32:09;;;;;;;;;1.60;1.60;;;;;;;;5019318;28;8829;-76
2022/09/07 11:34:41;;;;;;;;;2.00;2.00;;;;;;;;5023883;28;8946;-76
2022/09/07 11:37:13;;;;;;;;;3.40;3.40;;;;;;;;5012233;28;8899;-77
2022/09/07 11:39:45;;;;;;;;;4.20;2.40;;;;;;;;5026053;28;8860;-77
2022/09/07 11:42:17;;;;;;;;;2.80;2.80;;;;;;;;5024798;28;8875;-76
2022/09/07 11:44:48;;;;;;;;;9.20;4.80;;;;;;;;5026422;28;8864;-75
2022/09/07 11:47:25;;;;;;;;;3.80;3.80;;;;;;;;5023788;28;9771;-75
2022/09/07 11:49:53;;;;;;;;;4.40;3.40;;;;;;;;5024639;28;8896;-76
2022/09/07 11:52:32;;;;;;;;;3.80;2.80;;;;;;;;5025270;28;8856;-80
2022/09/07 11:55:03;;;;;;;;;3.00;3.00;;;;;;;;5024669;28;8876;-76
2022/09/07 11:57:43;;;;;;;;;3.40;2.80;;;;;;;;5025438;28;8875;-76
2022/09/07 12:00:17;;;;;;;;;3.00;2.80;;;;;;;;5023757;28;8857;-76
2022/09/07 12:03:13;;;;;;;;;3.20;2.80;;;;;;;;5009194;28;9031;-76
2022/09/07 12:06:15;;;;;;;;;2.60;2.20;;;;;;;;5024493;28;8871;-75
2022/09/07 12:08:53;;;;;;;;;2.00;2.00;;;;;;;;5016678;28;8899;-75
2022/09/07 12:11:35;;;;;;;;;3.20;2.20;;;;;;;;5024598;28;8872;-75
2022/09/07 12:14:26;;;;;;;;;1.80;1.80;;;;;;;;5024649;28;8861;-76
2022/09/07 12:17:05;;;;;;;;;3.60;2.40;;;;;;;;5015062;28;9620;-77
2022/09/07 12:19:33;;;;;;;;;3.00;3.00;;;;;;;;5024549;28;8883;-76
2022/09/07 12:22:01;;;;;;;;;2.60;2.60;;;;;;;;5023002;28;9965;-76
2022/09/07 12:24:38;;;;;;;;;3.80;3.80;;;;;;;;5026243;28;8877;-75
2022/09/07 12:27:06;;;;;;;;;4.00;4.00;;;;;;;;5022829;28;8861;-75
2022/09/07 12:29:33;;;;;;;;;1.80;1.80;;;;;;;;5023444;28;8878;-76
2022/09/07 12:32:02;;;;;;;;;5.20;2.60;;;;;;;;5023442;28;8923;-76
2022/09/07 12:34:51;;;;;;;;;2.00;2.00;;;;;;;;5022912;28;8868;-75
2022/09/07 12:37:51;;;;;;;;;2.20;2.20;;;;;;;;5022157;28;8896;-77
2022/09/07 12:40:48;;;;;;;;;3.00;3.00;;;;;;;;5020482;28;8865;-76
2022/09/07 12:43:53;;;;;;;;;3.80;1.80;;;;;;;;5021851;28;8880;-76
2022/09/07 12:46:54;;;;;;;;;3.40;3.40;;;;;;;;5022607;28;8872;-76
2022/09/07 12:49:43;;;;;;;;;8.00;5.40;;;;;;;;5022987;28;8894;-75
2022/09/07 12:52:31;;;;;;;;;3.20;2.40;;;;;;;;5010162;28;9781;-76
2022/09/07 12:55:08;;;;;;;;;3.60;1.80;;;;;;;;5023828;28;8891;-75
2022/09/07 12:57:40;;;;;;;;;3.80;2.20;;;;;;;;5022138;28;8855;-76
2022/09/07 13:00:16;;;;;;;;;2.00;2.00;;;;;;;;5020229;28;8871;-75
2022/09/07 13:03:21;;;;;;;;;4.40;3.60;;;;;;;;5021666;28;8887;-76
2022/09/07 13:06:11;;;;;;;;;3.40;1.80;;;;;;;;5022374;28;8927;-73
2022/09/07 13:09:10;;;;;;;;;3.40;2.20;;;;;;;;5021798;28;8872;-74
2022/09/07 13:11:39;;;;;;;;;2.40;1.80;;;;;;;;4998400;28;8910;-73
2022/09/07 13:14:18;;;;;;;;;4.80;2.40;;;;;;;;5021743;28;8884;-74
2022/09/07 13:16:47;;;;;;;;;1.80;1.80;;;;;;;;5022451;28;8868;-74
2022/09/07 13:19:16;;;;;;;;;3.80;3.00;;;;;;;;5023416;28;8864;-74
2022/09/07 13:21:48;;;;;;;;;3.60;1.80;;;;;;;;5022322;28;8884;-74
2022/09/07 13:24:49;;;;;;;;;1.40;1.40;;;;;;;;5024798;28;9753;-74
2022/09/07 13:27:42;;;;;;;;;2.60;1.00;;;;;;;;4989604;28;8920;-74
2022/09/07 13:30:31;;;;;;;;;2.60;1.00;;;;;;;;5024452;28;8859;-73
2022/09/07 13:33:40;;;;;;;;;2.20;1.00;;;;;;;;5021294;28;8878;-74
2022/09/07 13:36:24;;;;;;;;;2.80;0.80;;;;;;;;5003811;28;8921;-75
2022/09/07 13:38:54;;;;;;;;;0.80;0.80;;;;;;;;5005857;28;8874;-75
2022/09/07 13:41:24;;;;;;;;;1.00;1.00;;;;;;;;5021369;28;8902;-75
2022/09/07 13:43:58;;;;;;;;;1.80;1.20;;;;;;;;5022036;28;8907;-74
2022/09/07 13:46:44;;;;;;;;;1.00;1.00;;;;;;;;5023208;28;8895;-73
2022/09/07 13:49:22;;;;;;;;;1.00;1.00;;;;;;;;5022030;28;8887;-73
2022/09/07 13:51:54;;;;;;;;;2.20;0.60;;;;;;;;5022570;28;8895;-73
2022/09/07 13:54:30;;;;;;;;;1.00;1.00;;;;;;;;5023637;28;8856;-73
2022/09/07 13:57:09;;;;;;;;;1.00;1.00;;;;;;;;5022159;28;8899;-73
2022/09/07 13:59:37;;;;;;;;;2.00;1.00;;;;;;;;5045455;28;8860;-73
2022/09/07 14:02:14;;;;;;;;;1.00;1.00;;;;;;;;5021043;28;8848;-73
2022/09/07 14:04:43;;;;;;;;;1.00;1.00;;;;;;;;5019414;28;8876;-72
2022/09/07 14:07:15;;;;;;;;;2.00;2.00;;;;;;;;5014161;28;8868;-72
2022/09/07 14:09:43;;;;;;;;;1.00;1.00;;;;;;;;5019103;28;8852;-73
2022/09/07 14:12:15;;;;;;;;;0.80;0.80;;;;;;;;5021418;28;8995;-73
2022/09/07 14:14:42;;;;;;;;;1.00;1.00;;;;;;;;5019065;28;8890;-72
2022/09/07 14:17:14;;;;;;;;;1.00;1.00;;;;;;;;5021658;28;8873;-72
2022/09/07 14:19:43;;;;;;;;;3.00;2.00;;;;;;;;5019827;28;8872;-73
2022/09/07 14:22:14;;;;;;;;;1.00;1.00;;;;;;;;5020843;28;8888;-73
2022/09/07 14:24:48;;;;;;;;;2.40;1.00;;;;;;;;5003055;28;8876;-72
2022/09/07 14:27:21;;;;;;;;;1.80;1.80;;;;;;;;5017834;28;8882;-72
2022/09/07 14:29:49;;;;;;;;;1.60;1.60;;;;;;;;5021946;28;8909;-72
2022/09/07 14:32:18;;;;;;;;;4.20;1.00;;;;;;;;5018282;28;8836;-72
2022/09/07 14:34:46;;;;;;;;;4.20;1.40;;;;;;;;5019248;28;8873;-72
2022/09/07 14:37:16;;;;;;;;;2.00;2.00;;;;;;;;5020091;28;8990;-72
2022/09/07 14:39:46;;;;;;;;;2.80;2.00;;;;;;;;5019136;28;8872;-72
2022/09/07 14:42:23;;;;;;;;;1.00;1.00;;;;;;;;5021344;28;8872;-73
2022/09/07 14:44:56;;;;;;;;;3.80;1.60;;;;;;;;5019517;28;8886;-73
2022/09/07 14:47:28;;;;;;;;;1.20;1.20;;;;;;;;5020244;28;8938;-72
2022/09/07 14:49:58;;;;;;;;;2.00;1.00;;;;;;;;5025621;28;8875;-72
2022/09/07 14:52:32;;;;;;;;;1.60;1.60;;;;;;;;5018890;28;8922;-73
2022/09/07 14:54:59;;;;;;;;;2.40;1.00;;;;;;;;5019864;28;9717;-72
2022/09/07 14:57:31;;;;;;;;;1.40;1.40;;;;;;;;5017973;28;8891;-71
2022/09/07 14:59:58;;;;;;;;;2.40;1.00;;;;;;;;5019781;28;8861;-71
2022/09/07 15:02:36;;;;;;;;;1.80;1.80;;;;;;;;5005160;28;8804;-73
2022/09/07 15:05:25;;;;;;;;;1.00;1.00;;;;;;;;5020369;28;8865;-73
2022/09/07 15:07:55;;;;;;;;;1.00;1.00;;;;;;;;5019096;28;8937;-72
2022/09/07 15:10:38;;;;;;;;;4.80;2.00;;;;;;;;5018311;28;8876;-72
2022/09/07 15:13:23;;;;;;;;;3.00;1.80;;;;;;;;5010892;28;8993;-72
2022/09/07 15:15:58;;;;;;;;;3.00;1.00;;;;;;;;5018760;28;8886;-72
2022/09/07 15:18:54;;;;;;;;;1.00;1.00;;;;;;;;5020964;28;8882;-72
2022/09/07 15:21:23;;;;;;;;;1.00;1.00;;;;;;;;5009670;28;8907;-72
2022/09/07 15:23:51;;;;;;;;;0.60;0.60;;;;;;;;5019302;28;8881;-73
2022/09/07 15:26:19;;;;;;;;;2.60;0.80;;;;;;;;5020851;28;8914;-72